createdAt,value
2023-04-24T00:00:26.199Z,9.23
2023-04-24T00:05:30.907Z,8.65
2023-04-24T00:10:34.148Z,7.68
2023-04-24T00:15:38.296Z,7.32
2023-04-24T00:20:41.202Z,6.43
2023-04-24T00:25:45.363Z,6.40
2023-04-24T00:30:49.388Z,6.47
2023-04-24T00:35:52.010Z,6.80
2023-04-24T00:40:55.611Z,8.43
2023-04-24T00:46:00.601Z,8.98
2023-04-24T00:51:03.821Z,9.00
2023-04-24T00:56:07.557Z,9.50
2023-04-24T01:01:12.817Z,9.10
2023-04-24T01:06:16.041Z,9.40
2023-04-24T01:11:19.847Z,8.88
2023-04-24T01:16:23.907Z,8.88
2023-04-24T01:21:29.655Z,9.55
2023-04-24T01:26:33.846Z,11.68
2023-04-24T01:31:37.130Z,12.25
2023-04-24T01:36:40.062Z,11.65
2023-04-24T01:41:44.179Z,10.30
2023-04-24T01:46:47.167Z,7.60
2023-04-24T01:51:49.889Z,7.10
2023-04-24T01:56:53.973Z,7.63
2023-04-24T02:01:58.628Z,9.25
2023-04-24T02:07:01.348Z,11.55
2023-04-24T02:12:05.556Z,14.17
2023-04-24T02:17:08.150Z,15.18
2023-04-24T02:22:11.558Z,14.13
2023-04-24T02:27:15.774Z,11.85
2023-04-24T02:32:18.491Z,11.27
2023-04-24T02:37:21.150Z,9.50
2023-04-24T02:42:25.069Z,9.03
2023-04-24T02:47:27.850Z,7.80
2023-04-24T02:52:30.565Z,9.98
2023-04-24T02:57:34.616Z,10.17
2023-04-24T03:02:38.451Z,10.65
2023-04-24T03:07:41.237Z,10.55
2023-04-24T03:12:45.369Z,8.30
2023-04-24T03:17:48.298Z,9.63
2023-04-24T03:22:51.213Z,8.60
2023-04-24T03:27:59.783Z,8.57
2023-04-24T03:33:02.514Z,11.02
2023-04-24T03:38:06.146Z,15.63
2023-04-24T03:43:10.143Z,18.52
2023-04-24T03:48:12.828Z,18.00
2023-04-24T03:53:15.396Z,20.07
2023-04-24T03:58:20.431Z,19.07
2023-04-24T04:03:23.838Z,20.20
2023-04-24T04:08:26.673Z,22.58
2023-04-24T04:13:30.624Z,19.63
2023-04-24T04:18:33.212Z,18.45
2023-04-24T04:23:57.741Z,18.87
2023-04-24T04:34:04.970Z,23.63
2023-04-24T04:39:07.809Z,24.23
2023-04-24T04:44:11.853Z,26.63
2023-04-24T04:49:17.606Z,29.20
2023-04-24T04:54:20.444Z,29.15
2023-04-24T04:59:24.411Z,31.50
2023-04-24T05:04:27.503Z,31.35
2023-04-24T05:09:30.469Z,33.55
2023-04-24T05:14:34.406Z,31.37
2023-04-24T05:19:38.948Z,30.40
2023-04-24T05:24:41.659Z,28.48
2023-04-24T05:29:45.957Z,28.27
2023-04-24T05:34:48.594Z,26.88
2023-04-24T05:39:51.186Z,29.67
2023-04-24T05:44:57.859Z,27.03
2023-04-24T05:50:00.650Z,26.23
2023-04-24T05:55:03.587Z,25.70
2023-04-24T06:00:09.356Z,26.45
2023-04-24T06:05:12.197Z,25.88
2023-04-24T06:10:14.960Z,25.33
2023-04-24T06:15:19.088Z,26.13
2023-04-24T06:20:21.853Z,25.35
2023-04-24T06:25:26.473Z,26.10
2023-04-24T06:30:30.395Z,26.23
2023-04-24T06:35:33.058Z,26.15
2023-04-24T06:40:35.602Z,25.97
2023-04-24T06:45:41.258Z,26.88
2023-04-24T06:50:43.880Z,26.83
2023-04-24T06:55:47.475Z,25.43
2023-04-24T07:00:51.511Z,23.65
2023-04-24T07:05:54.552Z,21.95
2023-04-24T07:10:57.175Z,20.42
2023-04-24T07:16:01.171Z,17.10
2023-04-24T07:21:03.901Z,17.27
2023-04-24T07:26:06.576Z,15.67
2023-04-24T07:31:10.920Z,13.67
2023-04-24T07:36:17.079Z,10.75
2023-04-24T07:41:19.652Z,9.98
2023-04-24T07:46:24.335Z,10.00
2023-04-24T07:51:28.078Z,8.48
2023-04-24T07:56:32.142Z,8.38
2023-04-24T08:01:36.308Z,6.22
2023-04-24T08:06:38.947Z,6.38
2023-04-24T08:11:41.609Z,5.77
2023-04-24T08:16:45.660Z,5.80
2023-04-24T08:21:48.275Z,5.45
2023-04-24T08:26:53.171Z,4.90
2023-04-24T08:31:57.138Z,4.10
2023-04-24T08:36:59.773Z,4.50
2023-04-24T08:42:06.521Z,3.63
2023-04-24T08:47:14.588Z,4.93
2023-04-24T08:52:20.041Z,5.93
2023-04-24T08:57:23.399Z,8.05
2023-04-24T09:02:27.871Z,10.20
2023-04-24T09:07:34.585Z,11.27
2023-04-24T09:12:37.457Z,12.70
2023-04-24T09:17:42.475Z,14.60
2023-04-24T09:22:47.033Z,16.60
2023-04-24T09:27:49.606Z,16.58
2023-04-24T09:33:11.928Z,13.80
2023-04-24T09:38:14.609Z,13.73
2023-04-24T09:43:17.248Z,13.00
2023-04-24T09:48:21.236Z,12.83
2023-04-24T09:53:26.542Z,11.25
2023-04-24T09:58:30.848Z,10.45
2023-04-24T10:03:36.084Z,8.73
2023-04-24T10:08:39.548Z,8.93
2023-04-24T10:18:46.929Z,7.90
2023-04-24T10:23:51.189Z,8.18
2023-04-24T10:28:54.799Z,7.32
2023-04-24T10:34:00.437Z,7.85
2023-04-24T10:39:05.794Z,6.35
2023-04-24T10:44:09.596Z,5.07
2023-04-24T10:49:13.769Z,5.20
2023-04-24T10:54:27.335Z,5.20
2023-04-24T10:59:38.451Z,5.72
2023-04-24T11:04:43.934Z,6.82
2023-04-24T11:09:46.625Z,5.22
2023-04-24T11:15:05.553Z,5.00
2023-04-24T11:20:26.785Z,3.28
2023-04-24T11:25:32.889Z,3.83
2023-04-24T11:30:36.420Z,3.40
2023-04-24T11:35:42.834Z,3.20
2023-04-24T11:40:46.743Z,2.83
2023-04-24T11:45:50.905Z,3.17
2023-04-24T11:50:55.026Z,3.13
2023-04-24T11:55:57.731Z,3.10
2023-04-24T12:01:00.458Z,3.67
2023-04-24T12:06:12.712Z,3.80
2023-04-24T12:11:18.747Z,3.38
2023-04-24T12:16:21.509Z,3.97
2023-04-24T12:21:28.244Z,4.57
2023-04-24T12:26:30.986Z,3.00
2023-04-24T12:31:33.920Z,3.53
2023-04-24T12:36:38.900Z,2.10
2023-04-24T12:41:52.471Z,2.28
2023-04-24T12:46:55.089Z,1.92
2023-04-24T12:51:59.090Z,2.20
2023-04-24T12:57:01.750Z,2.63
2023-04-24T13:02:04.704Z,1.53
2023-04-24T13:07:08.710Z,1.55
2023-04-24T13:12:12.226Z,1.33
2023-04-24T13:17:15.386Z,1.20
2023-04-24T13:22:20.775Z,1.30
2023-04-24T13:27:23.437Z,1.10
2023-04-24T13:32:26.260Z,1.40
2023-04-24T13:37:30.406Z,1.15
2023-04-24T13:42:33.044Z,0.80
2023-04-24T13:47:36.420Z,1.87
2023-04-24T13:57:44.397Z,1.45
2023-04-24T14:02:49.944Z,1.27
2023-04-24T14:07:54.208Z,1.88
2023-04-24T14:12:56.861Z,2.05
2023-04-24T14:17:59.546Z,1.60
2023-04-24T14:23:03.788Z,1.37
2023-04-24T14:28:08.158Z,1.90
2023-04-24T14:33:11.079Z,3.08
2023-04-24T14:38:15.011Z,3.10
2023-04-24T14:43:17.615Z,2.75
2023-04-24T14:48:20.469Z,2.93
2023-04-24T14:53:24.511Z,3.17
2023-04-24T14:58:27.312Z,3.22
2023-04-24T15:03:30.450Z,3.07
2023-04-24T15:13:37.367Z,2.70
2023-04-24T15:18:39.971Z,2.93
2023-04-24T15:23:43.957Z,3.03
2023-04-24T15:28:47.635Z,2.40
2023-04-24T15:33:51.587Z,2.60
2023-04-24T15:38:55.877Z,2.35
2023-04-24T15:43:58.456Z,1.98
2023-04-24T15:49:02.073Z,2.20
2023-04-24T15:54:06.352Z,2.15
2023-04-24T15:59:10.011Z,2.10
2023-04-24T16:04:13.837Z,2.53
2023-04-24T16:09:17.957Z,2.15
2023-04-24T16:14:20.644Z,2.35
2023-04-24T16:19:23.612Z,2.03
2023-04-24T16:24:30.109Z,2.38
2023-04-24T16:29:32.888Z,2.40
2023-04-24T16:34:35.511Z,2.75
2023-04-24T16:39:44.059Z,2.57
2023-04-24T16:44:48.011Z,3.28
2023-04-24T16:49:50.921Z,2.75
2023-04-24T16:54:54.902Z,3.25
2023-04-24T16:59:57.766Z,4.22
2023-04-24T17:05:00.635Z,3.33
2023-04-24T17:10:05.596Z,3.47
2023-04-24T17:15:08.780Z,6.65
2023-04-24T17:20:22.257Z,4.25
2023-04-24T17:25:27.428Z,3.80
2023-04-24T17:30:30.152Z,3.58
2023-04-24T17:35:33.089Z,6.07
2023-04-24T17:40:38.093Z,4.88
2023-04-24T17:45:41.994Z,4.45
2023-04-24T17:50:44.674Z,3.63
2023-04-24T17:55:48.851Z,3.53
2023-04-24T18:00:51.769Z,4.32
2023-04-24T18:05:54.721Z,4.35
2023-04-24T18:10:59.166Z,4.85
2023-04-24T18:16:01.969Z,3.97
2023-04-24T18:21:06.045Z,3.95
2023-04-24T18:26:10.055Z,4.00
2023-04-24T18:31:12.936Z,4.07
2023-04-24T18:36:15.639Z,3.53
2023-04-24T18:41:19.921Z,4.23
2023-04-24T18:46:22.591Z,4.88
2023-04-24T18:51:25.383Z,4.47
2023-04-24T18:56:29.352Z,4.37
2023-04-24T19:01:33.099Z,4.47
2023-04-24T19:06:35.909Z,4.35
2023-04-24T19:11:41.553Z,5.37
2023-04-24T19:16:44.360Z,5.68
2023-04-24T19:21:47.551Z,5.10
2023-04-24T19:26:51.553Z,4.55
2023-04-24T19:31:54.674Z,4.55
2023-04-24T19:36:57.584Z,5.20
2023-04-24T19:42:04.110Z,5.13
2023-04-24T19:47:08.173Z,5.65
2023-04-24T19:52:10.843Z,5.05
2023-04-24T19:57:14.848Z,6.23
2023-04-24T20:02:17.758Z,5.97
2023-04-24T20:07:20.536Z,5.65
2023-04-24T20:12:24.509Z,6.10
2023-04-24T20:17:27.159Z,6.22
2023-04-24T20:22:31.558Z,5.77
2023-04-24T20:27:36.064Z,6.55
2023-04-24T20:32:38.998Z,6.03
2023-04-24T20:37:41.623Z,7.15
2023-04-24T20:42:46.321Z,5.47
2023-04-24T20:47:50.582Z,5.40
2023-04-24T20:52:53.437Z,5.82
2023-04-24T20:57:57.477Z,6.90
2023-04-24T21:03:00.185Z,6.32
2023-04-24T21:08:05.143Z,6.13
2023-04-24T21:13:09.093Z,6.45
2023-04-24T21:18:11.797Z,7.22
2023-04-24T21:23:14.388Z,8.33
2023-04-24T21:28:18.542Z,7.10
2023-04-24T21:33:21.174Z,7.13
2023-04-24T21:38:25.183Z,7.50
2023-04-24T21:43:43.547Z,7.22
2023-04-24T21:48:47.541Z,7.93
2023-04-24T21:53:50.380Z,6.80
2023-04-24T21:58:54.533Z,6.60
2023-04-24T22:03:57.317Z,6.75
2023-04-24T22:09:00.037Z,6.85
2023-04-24T22:14:03.957Z,6.35
2023-04-24T22:19:06.568Z,4.90
2023-04-24T22:24:09.837Z,5.47
2023-04-24T22:29:13.838Z,5.70
2023-04-24T22:34:17.040Z,6.03
2023-04-24T22:39:19.765Z,6.13
2023-04-24T22:44:23.694Z,5.60
2023-04-24T22:49:27.277Z,6.13
2023-04-24T22:54:30.120Z,5.43
2023-04-24T22:59:34.093Z,5.17
2023-04-24T23:04:37.621Z,5.03
2023-04-24T23:14:44.368Z,7.63
2023-04-24T23:19:47.052Z,7.47
2023-04-24T23:24:49.638Z,9.33
2023-04-24T23:29:53.543Z,7.95
2023-04-24T23:34:56.455Z,9.05
2023-04-24T23:39:59.072Z,10.25
2023-04-24T23:45:03.007Z,8.87
2023-04-24T23:50:06.776Z,9.63
2023-04-24T23:55:10.647Z,10.95
